sensor_id;sensor_type;location;lat;lon;timestamp;P1;durP1;ratioP1;P2;durP2;ratioP2
60430;SDS011;46285;45.122;20.726;2023-03-01T00:07:48;84.70;;;46.10;;
60430;SDS011;46285;45.122;20.726;2023-03-01T00:17:50;91.28;;;50.15;;
60430;SDS011;46285;45.122;20.726;2023-03-01T00:27:51;83.53;;;47.00;;
60430;SDS011;46285;45.122;20.726;2023-03-01T00:37:53;90.82;;;51.35;;
60430;SDS011;46285;45.122;20.726;2023-03-01T00:47:54;89.47;;;44.53;;
60430;SDS011;46285;45.122;20.726;2023-03-01T00:57:55;103.95;;;52.72;;
60430;SDS011;46285;45.122;20.726;2023-03-01T01:07:57;83.43;;;47.13;;
60430;SDS011;46285;45.122;20.726;2023-03-01T01:17:59;80.55;;;46.72;;
60430;SDS011;46285;45.122;20.726;2023-03-01T01:28:01;91.43;;;48.85;;
60430;SDS011;46285;45.122;20.726;2023-03-01T01:38:02;90.97;;;47.28;;
60430;SDS011;46285;45.122;20.726;2023-03-01T01:48:06;87.55;;;49.80;;
60430;SDS011;46285;45.122;20.726;2023-03-01T01:58:12;87.85;;;48.00;;
60430;SDS011;46285;45.122;20.726;2023-03-01T02:08:15;83.25;;;48.20;;
60430;SDS011;46285;45.122;20.726;2023-03-01T02:18:18;84.55;;;46.42;;
60430;SDS011;46285;45.122;20.726;2023-03-01T02:28:28;78.95;;;46.40;;
60430;SDS011;46285;45.122;20.726;2023-03-01T02:38:30;88.40;;;50.95;;
60430;SDS011;46285;45.122;20.726;2023-03-01T02:48:42;103.47;;;51.05;;
60430;SDS011;46285;45.122;20.726;2023-03-01T02:58:44;83.60;;;47.47;;
60430;SDS011;46285;45.122;20.726;2023-03-01T03:08:46;97.10;;;54.03;;
60430;SDS011;46285;45.122;20.726;2023-03-01T03:18:48;88.78;;;49.50;;
60430;SDS011;46285;45.122;20.726;2023-03-01T03:28:49;89.03;;;49.80;;
60430;SDS011;46285;45.122;20.726;2023-03-01T03:38:51;107.82;;;53.70;;
60430;SDS011;46285;45.122;20.726;2023-03-01T03:48:52;106.30;;;52.38;;
60430;SDS011;46285;45.122;20.726;2023-03-01T03:58:53;96.57;;;50.33;;
60430;SDS011;46285;45.122;20.726;2023-03-01T04:08:55;99.97;;;51.78;;
60430;SDS011;46285;45.122;20.726;2023-03-01T04:18:56;96.45;;;52.65;;
60430;SDS011;46285;45.122;20.726;2023-03-01T04:28:57;105.82;;;53.53;;
60430;SDS011;46285;45.122;20.726;2023-03-01T04:38:58;87.40;;;51.33;;
60430;SDS011;46285;45.122;20.726;2023-03-01T04:48:59;95.35;;;52.58;;
60430;SDS011;46285;45.122;20.726;2023-03-01T04:59:00;94.90;;;51.80;;
60430;SDS011;46285;45.122;20.726;2023-03-01T05:09:01;152.18;;;96.35;;
60430;SDS011;46285;45.122;20.726;2023-03-01T05:19:03;91.80;;;59.15;;
60430;SDS011;46285;45.122;20.726;2023-03-01T05:29:04;94.70;;;59.55;;
60430;SDS011;46285;45.122;20.726;2023-03-01T05:39:05;124.28;;;74.13;;
60430;SDS011;46285;45.122;20.726;2023-03-01T05:49:06;73.97;;;46.60;;
60430;SDS011;46285;45.122;20.726;2023-03-01T05:59:07;72.30;;;44.58;;
60430;SDS011;46285;45.122;20.726;2023-03-01T06:09:10;124.32;;;62.97;;
60430;SDS011;46285;45.122;20.726;2023-03-01T06:19:11;273.30;;;155.13;;
60430;SDS011;46285;45.122;20.726;2023-03-01T06:29:12;427.02;;;252.77;;
60430;SDS011;46285;45.122;20.726;2023-03-01T06:39:13;245.30;;;151.45;;
60430;SDS011;46285;45.122;20.726;2023-03-01T06:49:14;190.63;;;128.55;;
60430;SDS011;46285;45.122;20.726;2023-03-01T06:59:16;181.00;;;115.85;;
60430;SDS011;46285;45.122;20.726;2023-03-01T07:09:17;268.70;;;140.85;;
60430;SDS011;46285;45.122;20.726;2023-03-01T07:19:18;134.85;;;80.72;;
60430;SDS011;46285;45.122;20.726;2023-03-01T07:29:20;95.53;;;57.28;;
60430;SDS011;46285;45.122;20.726;2023-03-01T07:39:21;116.72;;;65.80;;
60430;SDS011;46285;45.122;20.726;2023-03-01T07:49:22;128.48;;;63.00;;
60430;SDS011;46285;45.122;20.726;2023-03-01T07:59:23;76.93;;;47.95;;
60430;SDS011;46285;45.122;20.726;2023-03-01T08:09:24;109.80;;;69.07;;
60430;SDS011;46285;45.122;20.726;2023-03-01T08:19:28;87.50;;;53.78;;
60430;SDS011;46285;45.122;20.726;2023-03-01T08:29:30;60.25;;;38.67;;
60430;SDS011;46285;45.122;20.726;2023-03-01T08:39:32;63.58;;;42.22;;
60430;SDS011;46285;45.122;20.726;2023-03-01T08:49:33;56.47;;;37.88;;
60430;SDS011;46285;45.122;20.726;2023-03-01T08:59:35;69.60;;;47.22;;
60430;SDS011;46285;45.122;20.726;2023-03-01T09:09:36;68.22;;;47.50;;
60430;SDS011;46285;45.122;20.726;2023-03-01T09:19:37;67.82;;;47.70;;
60430;SDS011;46285;45.122;20.726;2023-03-01T09:29:38;85.63;;;52.42;;
60430;SDS011;46285;45.122;20.726;2023-03-01T09:39:39;132.27;;;77.45;;
60430;SDS011;46285;45.122;20.726;2023-03-01T09:49:41;83.97;;;56.15;;
60430;SDS011;46285;45.122;20.726;2023-03-01T10:09:45;46.28;;;33.50;;
60430;SDS011;46285;45.122;20.726;2023-03-01T10:19:46;49.13;;;31.98;;
60430;SDS011;46285;45.122;20.726;2023-03-01T11:00:01;215.35;;;115.18;;
60430;SDS011;46285;45.122;20.726;2023-03-01T11:10:10;29.67;;;18.92;;
60430;SDS011;46285;45.122;20.726;2023-03-01T11:40:33;252.05;;;139.05;;
60430;SDS011;46285;45.122;20.726;2023-03-01T12:01:01;51.92;;;29.75;;
60430;SDS011;46285;45.122;20.726;2023-03-01T12:11:54;74.47;;;42.25;;
60430;SDS011;46285;45.122;20.726;2023-03-01T13:02:48;16.52;;;10.02;;
60430;SDS011;46285;45.122;20.726;2023-03-01T13:43:28;28.52;;;18.65;;
60430;SDS011;46285;45.122;20.726;2023-03-01T13:53:51;46.35;;;27.52;;
60430;SDS011;46285;45.122;20.726;2023-03-01T14:03:51;47.10;;;28.45;;
60430;SDS011;46285;45.122;20.726;2023-03-01T14:24:20;32.70;;;21.90;;
60430;SDS011;46285;45.122;20.726;2023-03-01T14:34:23;24.52;;;14.15;;
60430;SDS011;46285;45.122;20.726;2023-03-01T14:44:24;51.05;;;34.60;;
60430;SDS011;46285;45.122;20.726;2023-03-01T14:54:42;35.58;;;20.55;;
60430;SDS011;46285;45.122;20.726;2023-03-01T15:04:45;94.80;;;55.83;;
60430;SDS011;46285;45.122;20.726;2023-03-01T15:14:47;74.05;;;35.70;;
60430;SDS011;46285;45.122;20.726;2023-03-01T15:24:49;74.18;;;43.60;;
60430;SDS011;46285;45.122;20.726;2023-03-01T15:34:51;73.45;;;43.15;;
60430;SDS011;46285;45.122;20.726;2023-03-01T15:45:07;62.10;;;35.17;;
60430;SDS011;46285;45.122;20.726;2023-03-01T15:55:16;60.60;;;39.00;;
60430;SDS011;46285;45.122;20.726;2023-03-01T16:15:31;70.45;;;50.30;;
60430;SDS011;46285;45.122;20.726;2023-03-01T16:25:33;79.93;;;52.40;;
60430;SDS011;46285;45.122;20.726;2023-03-01T16:35:38;37.28;;;24.52;;
60430;SDS011;46285;45.122;20.726;2023-03-01T16:45:50;55.35;;;32.65;;
60430;SDS011;46285;45.122;20.726;2023-03-01T16:55:55;83.03;;;49.75;;
60430;SDS011;46285;45.122;20.726;2023-03-01T17:05:56;66.10;;;40.87;;
60430;SDS011;46285;45.122;20.726;2023-03-01T17:15:58;46.13;;;30.23;;
60430;SDS011;46285;45.122;20.726;2023-03-01T17:25:59;44.13;;;27.83;;
60430;SDS011;46285;45.122;20.726;2023-03-01T17:36:01;78.65;;;47.72;;
60430;SDS011;46285;45.122;20.726;2023-03-01T17:46:02;65.03;;;39.40;;
60430;SDS011;46285;45.122;20.726;2023-03-01T17:56:05;53.22;;;31.35;;
60430;SDS011;46285;45.122;20.726;2023-03-01T18:06:10;71.47;;;40.60;;
60430;SDS011;46285;45.122;20.726;2023-03-01T18:16:13;52.77;;;32.70;;
60430;SDS011;46285;45.122;20.726;2023-03-01T18:26:15;53.38;;;31.55;;
60430;SDS011;46285;45.122;20.726;2023-03-01T18:36:23;56.65;;;30.38;;
60430;SDS011;46285;45.122;20.726;2023-03-01T18:46:25;64.20;;;34.75;;
60430;SDS011;46285;45.122;20.726;2023-03-01T18:56:30;37.47;;;26.67;;
60430;SDS011;46285;45.122;20.726;2023-03-01T19:06:32;47.87;;;28.33;;
60430;SDS011;46285;45.122;20.726;2023-03-01T19:16:33;62.72;;;37.78;;
60430;SDS011;46285;45.122;20.726;2023-03-01T19:26:34;61.15;;;39.60;;
60430;SDS011;46285;45.122;20.726;2023-03-01T19:36:35;53.15;;;31.83;;
60430;SDS011;46285;45.122;20.726;2023-03-01T19:46:37;55.95;;;35.28;;
60430;SDS011;46285;45.122;20.726;2023-03-01T19:56:38;89.72;;;54.55;;
60430;SDS011;46285;45.122;20.726;2023-03-01T20:06:39;72.72;;;39.85;;
60430;SDS011;46285;45.122;20.726;2023-03-01T20:16:40;48.80;;;30.90;;
60430;SDS011;46285;45.122;20.726;2023-03-01T20:26:41;45.75;;;29.60;;
60430;SDS011;46285;45.122;20.726;2023-03-01T20:36:42;57.28;;;33.67;;
60430;SDS011;46285;45.122;20.726;2023-03-01T20:46:43;46.28;;;29.40;;
60430;SDS011;46285;45.122;20.726;2023-03-01T20:56:46;37.42;;;24.63;;
60430;SDS011;46285;45.122;20.726;2023-03-01T21:06:47;36.80;;;21.77;;
60430;SDS011;46285;45.122;20.726;2023-03-01T21:16:48;37.38;;;23.95;;
60430;SDS011;46285;45.122;20.726;2023-03-01T21:26:50;56.05;;;29.52;;
60430;SDS011;46285;45.122;20.726;2023-03-01T21:36:51;35.97;;;24.40;;
60430;SDS011;46285;45.122;20.726;2023-03-01T21:46:52;37.33;;;25.27;;
60430;SDS011;46285;45.122;20.726;2023-03-01T21:56:54;35.60;;;22.92;;
60430;SDS011;46285;45.122;20.726;2023-03-01T22:06:55;28.55;;;20.23;;
60430;SDS011;46285;45.122;20.726;2023-03-01T22:16:56;36.00;;;23.33;;
60430;SDS011;46285;45.122;20.726;2023-03-01T22:26:57;41.92;;;24.20;;
60430;SDS011;46285;45.122;20.726;2023-03-01T22:36:58;38.03;;;24.52;;
60430;SDS011;46285;45.122;20.726;2023-03-01T22:46:59;37.42;;;23.90;;
60430;SDS011;46285;45.122;20.726;2023-03-01T22:57:01;35.42;;;23.02;;
60430;SDS011;46285;45.122;20.726;2023-03-01T23:07:02;36.55;;;23.35;;
60430;SDS011;46285;45.122;20.726;2023-03-01T23:17:03;38.47;;;25.95;;
60430;SDS011;46285;45.122;20.726;2023-03-01T23:27:04;51.95;;;28.95;;
60430;SDS011;46285;45.122;20.726;2023-03-01T23:37:05;39.45;;;25.38;;
60430;SDS011;46285;45.122;20.726;2023-03-01T23:47:07;36.50;;;22.92;;
60430;SDS011;46285;45.122;20.726;2023-03-01T23:57:08;37.00;;;22.20;;
